Tambler Airport
RPMR : now visible

Airfield :











YOU CAN JOIN US ON...

 
LOGIN :

Register | Disclaimer

   EN    FR    IT 

 









Legend :    VFR   Marginal VFR   IFR   Intensive IFR   Very Intensive IFR
Visi :
Ceiling :
>= 8 km
>= 3000ft
5 to 8 km
1000 to 3000 ft
1500m to 5 km
500 to 1000 ft
800 to 1500m
200 to 500 ft
< 800m
< 200 ft
Symbols :   Thunderstorms  Fog  Heavy snow  Heavy precipitations  Wind > 20 kt






- Airport Elevation : 505 ft


RPMR - Tambler

CURRENT METAR :
  • 210200Z 04010KT 9999 FEW018 31/20 Q1017 NOSIG RMK A3003

EXPIRED METARs :
  • 210100Z 02010KT 9999 FEW018 SCT080 28/19 Q1017 NOSIG RMK A3003
  • 210000Z 34004KT 9999 FEW018 SCT080 28/23 Q1017 NOSIG RMK A3003

TAF TAF RPMR
Valid from the 21 at 00:00 until the 22 at 00:00 UTC


202300Z 2100/2124 02006KT 9999 FEW018
TEMPO 2100/2106 36008KT FEW015 BKN080



MET'MAP, your aeronautical weather chart ! - Copyright ORBIFLY December 2007 - Disclaimer

ORBIFLY MET'MAP TEAM :

Programming & Development : Alexandra Zaïnal
Concept & original design : Baudouin d'Aumeries
Assistance for programming : Marc-Olivier Méhu
Technical & hardware support : Manuel Goepfert

Contact : metmap@orbifly.com




SOURCES & CREDITS :

   NOAA       Earth
Advisory